Holly Ann — WDE9094 — position and weather

sailwx.info

Track history (hours):
 
Tides and Currents Weather Stations Pressure Air Temp Water Temp Dewpoint Dewpoint Depression Visibility Wind Speed Wind Dir Waves Ship Positions

Holly Ann

Owner: Manke Tug and Barge Co., Inc., Shelton, WA. More information available from US FCC via Universal Licensing System and Coast Guard Vessel Documentation Center.

Last reported at 2016-Feb-09 00:33 UTC. Time now 2016-Feb-09 01:23 UTC.
Position N 47°55' W 122°21'.

; draft 4.5 m.

Type: Towing. MMSI: 367413350.

Date/timePositionNaut miles runAvg speedWind from/ knotsBaromVisibWave heightAir tempDewpointWater temp
2016-Feb-09 00:33N 47°55' W 122°21'8 7.8
2016-Feb-08 23:34N 48°01' W 122°13'1 1.4
2016-Feb-08 22:33N 48°01' W 122°11'0 0.0
2016-Feb-08 21:14N 48°01' W 122°11'0 0.0
2016-Feb-08 20:33N 48°01' W 122°11'0 0.0
2016-Feb-08 19:34N 48°01' W 122°11'0 0.0
2016-Feb-08 18:34N 48°01' W 122°11'0 0.0
2016-Feb-08 17:33N 48°01' W 122°11'0 0.0
2016-Feb-08 16:33N 48°01' W 122°11'0 0.0
2016-Feb-08 15:33N 48°01' W 122°11'0 0.0
2016-Feb-08 14:33N 48°01' W 122°11'0 0.0
2016-Feb-08 13:24N 48°01' W 122°11'3 3.3
2016-Feb-08 12:34N 47°59' W 122°14'4 4.0
2016-Feb-08 11:33N 47°59' W 122°20'4 4.5
2016-Feb-08 10:34N 47°54' W 122°21'5 4.9
2016-Feb-08 09:33N 47°50' W 122°24'5 4.8
2016-Feb-08 08:34N 47°45' W 122°26'5 5.1
2016-Feb-08 07:33N 47°40' W 122°27'5 5.2
2016-Feb-08 06:34N 47°35' W 122°26'6 5.9
2016-Feb-08 05:34N 47°30' W 122°30'7 6.9
2016-Feb-08 04:33N 47°23' W 122°32'9 8.7
2016-Feb-08 03:33N 47°14' W 122°35'  
2016-Feb-05 07:11N 47°13' W 122°37'5 8.4
2016-Feb-05 06:34N 47°17' W 122°33'6 6.4
2016-Feb-05 05:33N 47°23' W 122°32'5 5.2
2016-Feb-05 04:33N 47°28' W 122°31'5 5.3
2016-Feb-05 03:34N 47°33' W 122°27'4 4.2
2016-Feb-05 02:34N 47°34' W 122°21'1 1.4
2016-Feb-05 01:34N 47°33' W 122°21'0 0.0
2016-Feb-05 00:34N 47°33' W 122°21'0 0.0
2016-Feb-04 23:34N 47°33' W 122°21'0 0.0
2016-Feb-04 22:33N 47°33' W 122°21'0 0.0
2016-Feb-04 21:33N 47°33' W 122°21'0 0.0
2016-Feb-04 20:34N 47°33' W 122°21'0 0.0
2016-Feb-04 19:33N 47°33' W 122°21'0 0.0
2016-Feb-04 18:34N 47°33' W 122°21'0 0.1
2016-Feb-04 17:34N 47°33' W 122°21'4 3.8
2016-Feb-04 16:34N 47°35' W 122°26'8 8.3
2016-Feb-04 15:34N 47°27' W 122°31'8 8.1
2016-Feb-04 14:33N 47°19' W 122°33'8 8.0
2016-Feb-04 13:32N 47°12' W 122°38'7 6.8
2016-Feb-04 12:32N 47°10' W 122°48'1 0.0
2016-Feb-03 08:32N 47°11' W 122°48'7 3.7
2016-Feb-03 06:33N 47°12' W 122°37'9 9.0
2016-Feb-03 05:33N 47°21' W 122°33'7 7.4
2016-Feb-03 04:33N 47°28' W 122°31'8 7.7
2016-Feb-03 03:33N 47°35' W 122°25'3 3.1
2016-Feb-03 02:33N 47°34' W 122°21'0 0.0
2016-Feb-03 01:33N 47°34' W 122°21'0 0.0
2016-Feb-03 00:33N 47°34' W 122°21'0 0.0
2016-Feb-02 23:33N 47°34' W 122°21'0 0.0
2016-Feb-02 22:33N 47°34' W 122°21'0 0.0
2016-Feb-02 21:33N 47°34' W 122°21'0 0.0
2016-Feb-02 20:33N 47°34' W 122°21'0 0.0
2016-Feb-02 19:33N 47°34' W 122°21'0 0.0
2016-Feb-02 18:33N 47°34' W 122°21'0 0.0
2016-Feb-02 17:33N 47°34' W 122°21'0 0.0
2016-Feb-02 16:33N 47°34' W 122°21'0 0.0
2016-Feb-02 15:34N 47°34' W 122°21'0 0.0
2016-Feb-02 14:33N 47°34' W 122°21'0 0.0
2016-Feb-02 13:33N 47°34' W 122°21'0 0.0
2016-Feb-02 12:33N 47°34' W 122°21'0 0.0
2016-Feb-02 11:33N 47°34' W 122°21'0 0.0
2016-Feb-02 10:33N 47°34' W 122°21'0 0.0
2016-Feb-02 09:33N 47°34' W 122°21'0 0.0
2016-Feb-02 08:33N 47°34' W 122°21'0 0.0
2016-Feb-02 07:33N 47°34' W 122°21'0 0.0
2016-Feb-02 06:33N 47°34' W 122°21'0 0.0
2016-Feb-02 05:33N 47°34' W 122°21'0 0.1
2016-Feb-02 04:33N 47°34' W 122°21'2 2.3
2016-Feb-02 03:33N 47°36' W 122°23'4 3.9
2016-Feb-02 02:33N 47°33' W 122°26'5 5.5
2016-Feb-02 01:33N 47°27' W 122°23'5 5.2
2016-Feb-02 00:33N 47°22' W 122°22'6 5.7
2016-Feb-01 23:33N 47°19' W 122°29'5 4.7
2016-Feb-01 22:33N 47°16' W 122°33'  
2016-Jan-30 13:12N 47°13' W 122°35'6 7.5
2016-Jan-30 12:25N 47°19' W 122°33'5 5.8
2016-Jan-30 11:34N 47°24' W 122°32'6 5.6
2016-Jan-30 10:34N 47°29' W 122°30'5 5.2
2016-Jan-30 09:33N 47°34' W 122°27'6 5.9
2016-Jan-30 08:33N 47°40' W 122°29'5 5.3
2016-Jan-30 07:33N 47°45' W 122°27'5 4.8
2016-Jan-30 06:34N 47°50' W 122°25'6 6.0
2016-Jan-30 05:33N 47°55' W 122°21'6 6.0
2016-Jan-30 04:33N 47°59' W 122°14'3 2.0
2016-Jan-30 03:12N 48°01' W 122°11'  
Track history (hours):
 
Tides and Currents Weather Stations Pressure Air Temp Water Temp Dewpoint Dewpoint Depression Visibility Wind Speed Wind Dir Waves Ship Positions

Holly Ann

Owner: Manke Tug and Barge Co., Inc., Shelton, WA. More information available from US FCC via Universal Licensing System and Coast Guard Vessel Documentation Center.

Last reported at 2016-Feb-09 00:33 UTC. Time now 2016-Feb-09 01:23 UTC.
Position N 47°55' W 122°21'.

; draft 4.5 m.

Type: Towing. MMSI: 367413350.

Date/timePositionNaut miles runAvg speedWind from/ knotsBaromVisibWave heightAir tempDewpointWater temp
2016-Feb-09 00:33N 47°55' W 122°21'8 7.8
2016-Feb-08 23:34N 48°01' W 122°13'1 1.4
2016-Feb-08 22:33N 48°01' W 122°11'0 0.0
2016-Feb-08 21:14N 48°01' W 122°11'0 0.0
2016-Feb-08 20:33N 48°01' W 122°11'0 0.0
2016-Feb-08 19:34N 48°01' W 122°11'0 0.0
2016-Feb-08 18:34N 48°01' W 122°11'0 0.0
2016-Feb-08 17:33N 48°01' W 122°11'0 0.0
2016-Feb-08 16:33N 48°01' W 122°11'0 0.0
2016-Feb-08 15:33N 48°01' W 122°11'0 0.0
2016-Feb-08 14:33N 48°01' W 122°11'0 0.0
2016-Feb-08 13:24N 48°01' W 122°11'3 3.3
2016-Feb-08 12:34N 47°59' W 122°14'4 4.0
2016-Feb-08 11:33N 47°59' W 122°20'4 4.5
2016-Feb-08 10:34N 47°54' W 122°21'5 4.9
2016-Feb-08 09:33N 47°50' W 122°24'5 4.8
2016-Feb-08 08:34N 47°45' W 122°26'5 5.1
2016-Feb-08 07:33N 47°40' W 122°27'5 5.2
2016-Feb-08 06:34N 47°35' W 122°26'6 5.9
2016-Feb-08 05:34N 47°30' W 122°30'7 6.9
2016-Feb-08 04:33N 47°23' W 122°32'9 8.7
2016-Feb-08 03:33N 47°14' W 122°35'  
2016-Feb-05 07:11N 47°13' W 122°37'5 8.4
2016-Feb-05 06:34N 47°17' W 122°33'6 6.4
2016-Feb-05 05:33N 47°23' W 122°32'5 5.2
2016-Feb-05 04:33N 47°28' W 122°31'5 5.3
2016-Feb-05 03:34N 47°33' W 122°27'4 4.2
2016-Feb-05 02:34N 47°34' W 122°21'1 1.4
2016-Feb-05 01:34N 47°33' W 122°21'0 0.0
2016-Feb-05 00:34N 47°33' W 122°21'0 0.0
2016-Feb-04 23:34N 47°33' W 122°21'0 0.0
2016-Feb-04 22:33N 47°33' W 122°21'0 0.0
2016-Feb-04 21:33N 47°33' W 122°21'0 0.0
2016-Feb-04 20:34N 47°33' W 122°21'0 0.0
2016-Feb-04 19:33N 47°33' W 122°21'0 0.0
2016-Feb-04 18:34N 47°33' W 122°21'0 0.1
2016-Feb-04 17:34N 47°33' W 122°21'4 3.8
2016-Feb-04 16:34N 47°35' W 122°26'8 8.3
2016-Feb-04 15:34N 47°27' W 122°31'8 8.1
2016-Feb-04 14:33N 47°19' W 122°33'8 8.0
2016-Feb-04 13:32N 47°12' W 122°38'7 6.8
2016-Feb-04 12:32N 47°10' W 122°48'1 0.0
2016-Feb-03 08:32N 47°11' W 122°48'7 3.7
2016-Feb-03 06:33N 47°12' W 122°37'9 9.0
2016-Feb-03 05:33N 47°21' W 122°33'7 7.4
2016-Feb-03 04:33N 47°28' W 122°31'8 7.7
2016-Feb-03 03:33N 47°35' W 122°25'3 3.1
2016-Feb-03 02:33N 47°34' W 122°21'0 0.0
2016-Feb-03 01:33N 47°34' W 122°21'0 0.0
2016-Feb-03 00:33N 47°34' W 122°21'0 0.0
2016-Feb-02 23:33N 47°34' W 122°21'0 0.0
2016-Feb-02 22:33N 47°34' W 122°21'0 0.0
2016-Feb-02 21:33N 47°34' W 122°21'0 0.0
2016-Feb-02 20:33N 47°34' W 122°21'0 0.0
2016-Feb-02 19:33N 47°34' W 122°21'0 0.0
2016-Feb-02 18:33N 47°34' W 122°21'0 0.0
2016-Feb-02 17:33N 47°34' W 122°21'0 0.0
2016-Feb-02 16:33N 47°34' W 122°21'0 0.0
2016-Feb-02 15:34N 47°34' W 122°21'0 0.0
2016-Feb-02 14:33N 47°34' W 122°21'0 0.0
2016-Feb-02 13:33N 47°34' W 122°21'0 0.0
2016-Feb-02 12:33N 47°34' W 122°21'0 0.0
2016-Feb-02 11:33N 47°34' W 122°21'0 0.0
2016-Feb-02 10:33N 47°34' W 122°21'0 0.0
2016-Feb-02 09:33N 47°34' W 122°21'0 0.0
2016-Feb-02 08:33N 47°34' W 122°21'0 0.0
2016-Feb-02 07:33N 47°34' W 122°21'0 0.0
2016-Feb-02 06:33N 47°34' W 122°21'0 0.0
2016-Feb-02 05:33N 47°34' W 122°21'0 0.1
2016-Feb-02 04:33N 47°34' W 122°21'2 2.3
2016-Feb-02 03:33N 47°36' W 122°23'4 3.9
2016-Feb-02 02:33N 47°33' W 122°26'5 5.5
2016-Feb-02 01:33N 47°27' W 122°23'5 5.2
2016-Feb-02 00:33N 47°22' W 122°22'6 5.7
2016-Feb-01 23:33N 47°19' W 122°29'5 4.7
2016-Feb-01 22:33N 47°16' W 122°33'  
2016-Jan-30 13:12N 47°13' W 122°35'6 7.5
2016-Jan-30 12:25N 47°19' W 122°33'5 5.8
2016-Jan-30 11:34N 47°24' W 122°32'6 5.6
2016-Jan-30 10:34N 47°29' W 122°30'5 5.2
2016-Jan-30 09:33N 47°34' W 122°27'6 5.9
2016-Jan-30 08:33N 47°40' W 122°29'5 5.3
2016-Jan-30 07:33N 47°45' W 122°27'5 4.8
2016-Jan-30 06:34N 47°50' W 122°25'6 6.0
2016-Jan-30 05:33N 47°55' W 122°21'6 6.0
2016-Jan-30 04:33N 47°59' W 122°14'3 2.0
2016-Jan-30 03:12N 48°01' W 122°11'  

Dump ship's entire track history